KACY/ACY METAR and TAF weather

Enter ICAO airport designator
Station Type Date Time Source
KACY METAR 2019/04/21 21:54 UTC NOAA

KACY 212154Z 19012G19KT 10SM CLR 17/09 A3004 RMK AO2 SLP173 T01670089 $


Station Type Date Time Source
KACY Decoded METAR 2019/04/21 21:54 UTC NOAA

ATLANTIC CITY INTERNATIONAL, NJ, United States (KACY) 39-28N 74-35W 35M
Apr 21, 2019 - 05:54 PM EDT / 2019.04.21 2154 UTC
Wind: from the S (190 degrees) at 14 MPH (12 KT) gusting to 22 MPH (19 KT):0
Visibility: 10 mile(s):0
Sky conditions: clear
Temperature: 62.1 F (16.7 C)
Dew Point: 48.0 F (8.9 C)
Relative Humidity: 59%
Pressure (altimeter): 30.04 in. Hg (1017 hPa)
ob: KACY 212154Z 19012G19KT 10SM CLR 17/09 A3004 RMK AO2 SLP173 T01670089
cycle: 22

Station Type Date Time Source
KACY TAF 2019/04/21 18:27 UTC NOAA

TAF KACY 211724Z 2118/2218 20010G18KT P6SM BKN060
FM220100 VRB03KT P6SM BKN060
FM221100 36005KT P6SM OVC060
FM221500 04010KT P6SM BKN060

Example: see airport list